sensor_id;sensor_type;location;lat;lon;timestamp;temperature;humidity
8633;DHT22;4354;49.832;10.746;2023-03-11T00:00:15;2.30;99.90
8633;DHT22;4354;49.832;10.746;2023-03-11T00:02:45;2.30;99.90
8633;DHT22;4354;49.832;10.746;2023-03-11T00:05:22;2.30;99.90
8633;DHT22;4354;49.832;10.746;2023-03-11T00:07:50;2.30;99.90
8633;DHT22;4354;49.832;10.746;2023-03-11T00:10:26;2.30;99.90
8633;DHT22;4354;49.832;10.746;2023-03-11T00:12:57;2.30;99.90
8633;DHT22;4354;49.832;10.746;2023-03-11T00:15:25;2.30;99.90
8633;DHT22;4354;49.832;10.746;2023-03-11T00:17:52;2.30;99.90
8633;DHT22;4354;49.832;10.746;2023-03-11T00:20:23;2.30;99.90
8633;DHT22;4354;49.832;10.746;2023-03-11T00:22:50;2.30;99.90
8633;DHT22;4354;49.832;10.746;2023-03-11T00:25:18;2.20;99.90
8633;DHT22;4354;49.832;10.746;2023-03-11T00:27:45;2.30;99.90
8633;DHT22;4354;49.832;10.746;2023-03-11T00:30:13;2.30;99.90
8633;DHT22;4354;49.832;10.746;2023-03-11T00:32:40;2.30;99.90
8633;DHT22;4354;49.832;10.746;2023-03-11T00:35:09;2.20;99.90
8633;DHT22;4354;49.832;10.746;2023-03-11T00:37:37;2.30;99.90
8633;DHT22;4354;49.832;10.746;2023-03-11T00:40:05;2.60;99.90
8633;DHT22;4354;49.832;10.746;2023-03-11T00:42:34;2.20;99.90
8633;DHT22;4354;49.832;10.746;2023-03-11T00:45:01;2.30;99.90
8633;DHT22;4354;49.832;10.746;2023-03-11T00:47:27;2.20;99.90
8633;DHT22;4354;49.832;10.746;2023-03-11T00:49:54;2.20;99.90
8633;DHT22;4354;49.832;10.746;2023-03-11T00:52:21;2.20;99.90
8633;DHT22;4354;49.832;10.746;2023-03-11T00:54:48;2.20;99.90
8633;DHT22;4354;49.832;10.746;2023-03-11T00:57:15;2.20;99.90
8633;DHT22;4354;49.832;10.746;2023-03-11T00:59:41;2.20;99.90
8633;DHT22;4354;49.832;10.746;2023-03-11T01:02:08;2.20;99.90
8633;DHT22;4354;49.832;10.746;2023-03-11T01:04:35;2.10;99.90
8633;DHT22;4354;49.832;10.746;2023-03-11T01:07:02;2.10;99.90
8633;DHT22;4354;49.832;10.746;2023-03-11T01:09:29;2.10;99.90
8633;DHT22;4354;49.832;10.746;2023-03-11T01:11:56;2.00;99.90
8633;DHT22;4354;49.832;10.746;2023-03-11T01:14:23;2.00;99.90
8633;DHT22;4354;49.832;10.746;2023-03-11T01:16:50;2.10;99.90
8633;DHT22;4354;49.832;10.746;2023-03-11T01:19:17;2.00;99.90
8633;DHT22;4354;49.832;10.746;2023-03-11T01:21:44;2.10;99.90
8633;DHT22;4354;49.832;10.746;2023-03-11T01:24:11;2.00;99.90
8633;DHT22;4354;49.832;10.746;2023-03-11T01:26:37;2.00;99.90
8633;DHT22;4354;49.832;10.746;2023-03-11T01:29:04;2.00;99.90
8633;DHT22;4354;49.832;10.746;2023-03-11T01:31:31;2.00;99.90
8633;DHT22;4354;49.832;10.746;2023-03-11T01:33:58;2.00;99.90
8633;DHT22;4354;49.832;10.746;2023-03-11T01:36:25;2.00;99.90
8633;DHT22;4354;49.832;10.746;2023-03-11T01:38:51;2.00;99.90
8633;DHT22;4354;49.832;10.746;2023-03-11T01:41:18;2.00;99.90
8633;DHT22;4354;49.832;10.746;2023-03-11T01:43:46;2.00;99.90
8633;DHT22;4354;49.832;10.746;2023-03-11T01:46:21;2.00;99.90
8633;DHT22;4354;49.832;10.746;2023-03-11T01:48:59;2.00;99.90
8633;DHT22;4354;49.832;10.746;2023-03-11T01:51:32;2.00;99.90
8633;DHT22;4354;49.832;10.746;2023-03-11T01:54:07;2.00;99.90
8633;DHT22;4354;49.832;10.746;2023-03-11T01:56:37;2.00;99.90
8633;DHT22;4354;49.832;10.746;2023-03-11T01:59:06;2.00;99.90
8633;DHT22;4354;49.832;10.746;2023-03-11T02:01:35;2.00;99.90
8633;DHT22;4354;49.832;10.746;2023-03-11T02:04:03;2.00;99.90
8633;DHT22;4354;49.832;10.746;2023-03-11T02:06:31;2.00;99.90
8633;DHT22;4354;49.832;10.746;2023-03-11T02:08:59;2.00;99.90
8633;DHT22;4354;49.832;10.746;2023-03-11T02:11:28;1.90;99.90
8633;DHT22;4354;49.832;10.746;2023-03-11T02:13:59;1.90;99.90
8633;DHT22;4354;49.832;10.746;2023-03-11T02:16:27;1.90;99.90
8633;DHT22;4354;49.832;10.746;2023-03-11T02:18:59;1.90;99.90
8633;DHT22;4354;49.832;10.746;2023-03-11T02:21:32;1.90;99.90
8633;DHT22;4354;49.832;10.746;2023-03-11T02:24:11;1.80;99.90
8633;DHT22;4354;49.832;10.746;2023-03-11T02:27:02;1.80;99.90
8633;DHT22;4354;49.832;10.746;2023-03-11T02:29:29;1.80;99.90
8633;DHT22;4354;49.832;10.746;2023-03-11T02:32:00;1.80;99.90
8633;DHT22;4354;49.832;10.746;2023-03-11T02:34:30;1.80;99.90
8633;DHT22;4354;49.832;10.746;2023-03-11T02:36:58;1.70;99.90
8633;DHT22;4354;49.832;10.746;2023-03-11T02:41:59;1.70;99.90
8633;DHT22;4354;49.832;10.746;2023-03-11T02:44:28;1.70;99.90
8633;DHT22;4354;49.832;10.746;2023-03-11T02:46:55;1.70;99.90
8633;DHT22;4354;49.832;10.746;2023-03-11T02:49:22;1.70;99.90
8633;DHT22;4354;49.832;10.746;2023-03-11T02:51:49;1.60;99.90
8633;DHT22;4354;49.832;10.746;2023-03-11T02:54:17;1.70;99.90
8633;DHT22;4354;49.832;10.746;2023-03-11T02:56:44;1.70;99.90
8633;DHT22;4354;49.832;10.746;2023-03-11T02:59:11;1.70;99.90
8633;DHT22;4354;49.832;10.746;2023-03-11T03:01:38;1.60;99.90
8633;DHT22;4354;49.832;10.746;2023-03-11T03:04:04;1.70;99.90
8633;DHT22;4354;49.832;10.746;2023-03-11T03:06:31;1.70;99.90
8633;DHT22;4354;49.832;10.746;2023-03-11T03:08:58;1.70;99.90
8633;DHT22;4354;49.832;10.746;2023-03-11T03:11:25;1.60;99.90
8633;DHT22;4354;49.832;10.746;2023-03-11T03:13:51;1.50;99.90
8633;DHT22;4354;49.832;10.746;2023-03-11T03:16:18;1.50;99.90
8633;DHT22;4354;49.832;10.746;2023-03-11T03:18:45;1.40;99.90
8633;DHT22;4354;49.832;10.746;2023-03-11T03:21:12;1.50;99.90
8633;DHT22;4354;49.832;10.746;2023-03-11T03:23:39;1.50;99.90
8633;DHT22;4354;49.832;10.746;2023-03-11T03:26:06;1.40;99.90
8633;DHT22;4354;49.832;10.746;2023-03-11T03:28:32;1.40;99.90
8633;DHT22;4354;49.832;10.746;2023-03-11T03:31:04;1.40;99.90
8633;DHT22;4354;49.832;10.746;2023-03-11T03:33:31;1.30;99.90
8633;DHT22;4354;49.832;10.746;2023-03-11T03:35:58;1.30;99.90
8633;DHT22;4354;49.832;10.746;2023-03-11T03:38:25;1.30;99.90
8633;DHT22;4354;49.832;10.746;2023-03-11T03:40:52;1.30;99.90
8633;DHT22;4354;49.832;10.746;2023-03-11T03:43:18;1.40;99.90
8633;DHT22;4354;49.832;10.746;2023-03-11T03:45:57;1.40;99.90
8633;DHT22;4354;49.832;10.746;2023-03-11T03:48:24;1.40;99.90
8633;DHT22;4354;49.832;10.746;2023-03-11T03:50:51;1.30;99.90
8633;DHT22;4354;49.832;10.746;2023-03-11T03:53:18;1.30;99.90
8633;DHT22;4354;49.832;10.746;2023-03-11T03:55:45;1.30;99.90
8633;DHT22;4354;49.832;10.746;2023-03-11T03:58:12;1.30;99.90
8633;DHT22;4354;49.832;10.746;2023-03-11T04:00:38;1.30;99.90
8633;DHT22;4354;49.832;10.746;2023-03-11T04:03:05;1.30;99.90
8633;DHT22;4354;49.832;10.746;2023-03-11T04:05:32;1.30;99.90
8633;DHT22;4354;49.832;10.746;2023-03-11T04:07:59;1.40;99.90
8633;DHT22;4354;49.832;10.746;2023-03-11T04:10:26;1.30;99.90
8633;DHT22;4354;49.832;10.746;2023-03-11T04:12:53;1.40;99.90
8633;DHT22;4354;49.832;10.746;2023-03-11T04:15:20;1.40;99.90
8633;DHT22;4354;49.832;10.746;2023-03-11T04:17:47;1.30;99.90
8633;DHT22;4354;49.832;10.746;2023-03-11T04:20:13;1.30;99.90
8633;DHT22;4354;49.832;10.746;2023-03-11T04:22:40;1.30;99.90
8633;DHT22;4354;49.832;10.746;2023-03-11T04:25:07;1.30;99.90
8633;DHT22;4354;49.832;10.746;2023-03-11T04:27:34;1.30;99.90
8633;DHT22;4354;49.832;10.746;2023-03-11T04:30:01;1.40;99.90
8633;DHT22;4354;49.832;10.746;2023-03-11T04:32:28;1.30;99.90
8633;DHT22;4354;49.832;10.746;2023-03-11T04:34:54;1.20;99.90
8633;DHT22;4354;49.832;10.746;2023-03-11T04:37:21;1.20;99.90
8633;DHT22;4354;49.832;10.746;2023-03-11T04:39:49;1.20;99.90
8633;DHT22;4354;49.832;10.746;2023-03-11T04:42:18;1.10;99.90
8633;DHT22;4354;49.832;10.746;2023-03-11T04:44:45;1.00;99.90
8633;DHT22;4354;49.832;10.746;2023-03-11T04:47:12;1.00;99.90
8633;DHT22;4354;49.832;10.746;2023-03-11T04:49:39;1.00;99.90
8633;DHT22;4354;49.832;10.746;2023-03-11T04:52:05;1.10;99.90
8633;DHT22;4354;49.832;10.746;2023-03-11T04:54:32;1.10;99.90
8633;DHT22;4354;49.832;10.746;2023-03-11T04:56:59;1.10;99.90
8633;DHT22;4354;49.832;10.746;2023-03-11T04:59:26;1.00;99.90
8633;DHT22;4354;49.832;10.746;2023-03-11T05:01:53;1.00;99.90
8633;DHT22;4354;49.832;10.746;2023-03-11T05:04:20;0.90;99.90
8633;DHT22;4354;49.832;10.746;2023-03-11T05:06:46;0.90;99.90
8633;DHT22;4354;49.832;10.746;2023-03-11T05:09:17;0.90;99.90
8633;DHT22;4354;49.832;10.746;2023-03-11T05:11:43;0.80;99.90
8633;DHT22;4354;49.832;10.746;2023-03-11T05:14:10;0.80;99.90
8633;DHT22;4354;49.832;10.746;2023-03-11T05:16:37;0.70;99.90
8633;DHT22;4354;49.832;10.746;2023-03-11T05:19:04;0.70;99.90
8633;DHT22;4354;49.832;10.746;2023-03-11T05:21:50;0.70;99.90
8633;DHT22;4354;49.832;10.746;2023-03-11T05:24:17;0.60;99.90
8633;DHT22;4354;49.832;10.746;2023-03-11T05:26:44;0.70;99.90
8633;DHT22;4354;49.832;10.746;2023-03-11T05:29:14;0.70;99.90
8633;DHT22;4354;49.832;10.746;2023-03-11T05:31:40;0.70;99.90
8633;DHT22;4354;49.832;10.746;2023-03-11T05:34:07;0.70;99.90
8633;DHT22;4354;49.832;10.746;2023-03-11T05:36:35;0.70;99.90
8633;DHT22;4354;49.832;10.746;2023-03-11T05:39:02;0.80;99.90
8633;DHT22;4354;49.832;10.746;2023-03-11T05:41:29;0.80;99.90
8633;DHT22;4354;49.832;10.746;2023-03-11T05:43:55;0.80;99.90
8633;DHT22;4354;49.832;10.746;2023-03-11T05:46:22;0.80;99.90
8633;DHT22;4354;49.832;10.746;2023-03-11T05:48:49;0.70;99.90
8633;DHT22;4354;49.832;10.746;2023-03-11T05:51:16;0.80;99.90
8633;DHT22;4354;49.832;10.746;2023-03-11T05:53:44;0.80;99.90
8633;DHT22;4354;49.832;10.746;2023-03-11T05:56:15;0.80;99.90
8633;DHT22;4354;49.832;10.746;2023-03-11T05:58:42;0.80;99.90
8633;DHT22;4354;49.832;10.746;2023-03-11T06:01:10;0.90;99.90
8633;DHT22;4354;49.832;10.746;2023-03-11T06:03:39;0.90;99.90
8633;DHT22;4354;49.832;10.746;2023-03-11T06:06:08;0.90;99.90
8633;DHT22;4354;49.832;10.746;2023-03-11T06:08:35;1.00;99.90
8633;DHT22;4354;49.832;10.746;2023-03-11T06:11:07;1.00;99.90
8633;DHT22;4354;49.832;10.746;2023-03-11T06:13:35;1.00;99.90
8633;DHT22;4354;49.832;10.746;2023-03-11T06:16:03;1.00;99.90
8633;DHT22;4354;49.832;10.746;2023-03-11T06:18:30;1.00;99.90
8633;DHT22;4354;49.832;10.746;2023-03-11T06:20:58;1.00;99.90
8633;DHT22;4354;49.832;10.746;2023-03-11T06:23:25;1.10;99.90
8633;DHT22;4354;49.832;10.746;2023-03-11T06:26:03;1.10;99.90
8633;DHT22;4354;49.832;10.746;2023-03-11T06:28:31;1.20;99.90
8633;DHT22;4354;49.832;10.746;2023-03-11T06:31:07;1.20;99.90
8633;DHT22;4354;49.832;10.746;2023-03-11T06:33:34;1.30;99.90
8633;DHT22;4354;49.832;10.746;2023-03-11T06:36:02;1.30;99.90
8633;DHT22;4354;49.832;10.746;2023-03-11T06:38:30;1.30;99.90
8633;DHT22;4354;49.832;10.746;2023-03-11T06:41:01;1.30;99.90
8633;DHT22;4354;49.832;10.746;2023-03-11T06:43:29;1.20;99.90
8633;DHT22;4354;49.832;10.746;2023-03-11T06:45:57;1.30;99.90
8633;DHT22;4354;49.832;10.746;2023-03-11T06:48:24;1.20;99.90
8633;DHT22;4354;49.832;10.746;2023-03-11T06:50:56;1.30;99.90
8633;DHT22;4354;49.832;10.746;2023-03-11T06:53:23;1.30;99.90
8633;DHT22;4354;49.832;10.746;2023-03-11T06:56:06;1.40;99.90
8633;DHT22;4354;49.832;10.746;2023-03-11T06:58:35;1.40;99.90
8633;DHT22;4354;49.832;10.746;2023-03-11T07:01:09;1.50;99.90
8633;DHT22;4354;49.832;10.746;2023-03-11T07:03:37;1.70;99.90
8633;DHT22;4354;49.832;10.746;2023-03-11T07:06:04;1.80;99.90
8633;DHT22;4354;49.832;10.746;2023-03-11T07:08:32;1.80;99.90
8633;DHT22;4354;49.832;10.746;2023-03-11T07:11:19;2.00;99.90
8633;DHT22;4354;49.832;10.746;2023-03-11T07:13:47;2.10;99.90
8633;DHT22;4354;49.832;10.746;2023-03-11T07:16:25;2.20;99.90
8633;DHT22;4354;49.832;10.746;2023-03-11T07:18:54;2.30;99.90
8633;DHT22;4354;49.832;10.746;2023-03-11T07:21:22;2.40;99.90
8633;DHT22;4354;49.832;10.746;2023-03-11T07:23:57;2.70;99.90
8633;DHT22;4354;49.832;10.746;2023-03-11T07:26:25;2.80;99.90
8633;DHT22;4354;49.832;10.746;2023-03-11T07:28:54;2.80;99.90
8633;DHT22;4354;49.832;10.746;2023-03-11T07:31:24;2.80;99.90
8633;DHT22;4354;49.832;10.746;2023-03-11T07:33:52;2.80;99.90
8633;DHT22;4354;49.832;10.746;2023-03-11T07:36:23;2.80;99.90
8633;DHT22;4354;49.832;10.746;2023-03-11T07:39:03;2.90;99.90
8633;DHT22;4354;49.832;10.746;2023-03-11T07:41:32;3.30;99.90
8633;DHT22;4354;49.832;10.746;2023-03-11T07:44:00;3.60;99.90
8633;DHT22;4354;49.832;10.746;2023-03-11T07:46:28;4.70;99.90
8633;DHT22;4354;49.832;10.746;2023-03-11T07:48:55;5.20;99.90
8633;DHT22;4354;49.832;10.746;2023-03-11T07:51:25;6.10;99.90
8633;DHT22;4354;49.832;10.746;2023-03-11T07:53:53;6.60;99.90
8633;DHT22;4354;49.832;10.746;2023-03-11T07:56:24;7.50;99.90
8633;DHT22;4354;49.832;10.746;2023-03-11T07:58:52;8.40;99.90
8633;DHT22;4354;49.832;10.746;2023-03-11T08:01:23;9.50;99.90
8633;DHT22;4354;49.832;10.746;2023-03-11T08:03:52;9.50;97.00
8633;DHT22;4354;49.832;10.746;2023-03-11T08:06:26;9.00;96.70
8633;DHT22;4354;49.832;10.746;2023-03-11T08:08:54;9.50;96.80
8633;DHT22;4354;49.832;10.746;2023-03-11T08:11:21;10.90;93.60
8633;DHT22;4354;49.832;10.746;2023-03-11T08:13:49;11.20;91.80
8633;DHT22;4354;49.832;10.746;2023-03-11T08:16:18;11.30;90.00
8633;DHT22;4354;49.832;10.746;2023-03-11T08:18:46;11.90;86.60
8633;DHT22;4354;49.832;10.746;2023-03-11T08:21:19;12.20;82.40
8633;DHT22;4354;49.832;10.746;2023-03-11T08:26:20;13.20;80.70
8633;DHT22;4354;49.832;10.746;2023-03-11T08:28:50;14.70;76.50
8633;DHT22;4354;49.832;10.746;2023-03-11T08:31:19;16.30;72.90
8633;DHT22;4354;49.832;10.746;2023-03-11T08:33:48;15.40;99.90
8633;DHT22;4354;49.832;10.746;2023-03-11T08:36:16;13.50;99.90
8633;DHT22;4354;49.832;10.746;2023-03-11T08:38:46;13.00;99.90
8633;DHT22;4354;49.832;10.746;2023-03-11T08:41:13;14.70;99.90
8633;DHT22;4354;49.832;10.746;2023-03-11T08:43:40;16.40;99.90
8633;DHT22;4354;49.832;10.746;2023-03-11T08:46:09;16.80;99.90
8633;DHT22;4354;49.832;10.746;2023-03-11T08:48:39;16.70;99.90
8633;DHT22;4354;49.832;10.746;2023-03-11T08:51:12;15.30;99.90
8633;DHT22;4354;49.832;10.746;2023-03-11T08:53:39;13.60;99.90
8633;DHT22;4354;49.832;10.746;2023-03-11T08:56:07;13.30;99.90
8633;DHT22;4354;49.832;10.746;2023-03-11T08:58:34;14.70;99.90
8633;DHT22;4354;49.832;10.746;2023-03-11T09:01:01;16.00;99.90
8633;DHT22;4354;49.832;10.746;2023-03-11T09:03:31;14.90;99.90
8633;DHT22;4354;49.832;10.746;2023-03-11T09:05:59;15.20;99.90
8633;DHT22;4354;49.832;10.746;2023-03-11T09:08:27;15.80;99.90
8633;DHT22;4354;49.832;10.746;2023-03-11T09:10:59;14.90;99.90
8633;DHT22;4354;49.832;10.746;2023-03-11T09:13:26;13.60;99.90
8633;DHT22;4354;49.832;10.746;2023-03-11T09:15:53;11.70;99.90
8633;DHT22;4354;49.832;10.746;2023-03-11T09:18:20;10.30;99.90
8633;DHT22;4354;49.832;10.746;2023-03-11T09:20:47;9.40;99.90
8633;DHT22;4354;49.832;10.746;2023-03-11T09:23:15;9.00;99.90
8633;DHT22;4354;49.832;10.746;2023-03-11T09:25:43;8.80;99.90
8633;DHT22;4354;49.832;10.746;2023-03-11T09:28:10;8.00;99.90
8633;DHT22;4354;49.832;10.746;2023-03-11T09:30:37;7.90;99.90
8633;DHT22;4354;49.832;10.746;2023-03-11T09:33:04;7.70;99.90
8633;DHT22;4354;49.832;10.746;2023-03-11T09:35:30;7.90;99.90
8633;DHT22;4354;49.832;10.746;2023-03-11T09:37:57;8.00;99.90
8633;DHT22;4354;49.832;10.746;2023-03-11T09:40:27;8.60;99.90
8633;DHT22;4354;49.832;10.746;2023-03-11T09:45:30;10.90;99.90
8633;DHT22;4354;49.832;10.746;2023-03-11T09:48:22;12.30;99.90
8633;DHT22;4354;49.832;10.746;2023-03-11T09:51:16;12.70;99.90
8633;DHT22;4354;49.832;10.746;2023-03-11T09:53:46;11.90;99.90
8633;DHT22;4354;49.832;10.746;2023-03-11T09:56:18;11.10;99.90
8633;DHT22;4354;49.832;10.746;2023-03-11T10:01:31;8.70;99.90
8633;DHT22;4354;49.832;10.746;2023-03-11T10:04:08;7.90;99.90
8633;DHT22;4354;49.832;10.746;2023-03-11T10:06:37;7.60;99.90
8633;DHT22;4354;49.832;10.746;2023-03-11T10:12:34;7.10;99.90
8633;DHT22;4354;49.832;10.746;2023-03-11T10:15:19;7.20;99.90
8633;DHT22;4354;49.832;10.746;2023-03-11T10:18:04;7.10;99.90
8633;DHT22;4354;49.832;10.746;2023-03-11T10:21:02;6.80;99.90
8633;DHT22;4354;49.832;10.746;2023-03-11T10:26:36;5.80;99.90
8633;DHT22;4354;49.832;10.746;2023-03-11T10:29:28;5.80;99.90
8633;DHT22;4354;49.832;10.746;2023-03-11T10:32:24;5.80;99.90
8633;DHT22;4354;49.832;10.746;2023-03-11T10:37:52;5.70;99.90
8633;DHT22;4354;49.832;10.746;2023-03-11T10:40:30;5.90;99.90
8633;DHT22;4354;49.832;10.746;2023-03-11T10:43:04;6.30;99.90
8633;DHT22;4354;49.832;10.746;2023-03-11T10:45:37;6.60;99.90
8633;DHT22;4354;49.832;10.746;2023-03-11T10:48:15;6.70;99.90
8633;DHT22;4354;49.832;10.746;2023-03-11T10:51:01;6.70;99.90
8633;DHT22;4354;49.832;10.746;2023-03-11T10:53:29;6.40;99.90
8633;DHT22;4354;49.832;10.746;2023-03-11T10:55:57;6.10;99.90
8633;DHT22;4354;49.832;10.746;2023-03-11T10:58:27;5.90;99.90
8633;DHT22;4354;49.832;10.746;2023-03-11T11:01:13;5.60;99.90
8633;DHT22;4354;49.832;10.746;2023-03-11T11:03:46;5.30;99.90
8633;DHT22;4354;49.832;10.746;2023-03-11T11:06:29;4.90;99.90
8633;DHT22;4354;49.832;10.746;2023-03-11T11:09:17;4.70;99.90
8633;DHT22;4354;49.832;10.746;2023-03-11T11:12:13;4.60;99.90
8633;DHT22;4354;49.832;10.746;2023-03-11T11:14:51;4.70;99.90
8633;DHT22;4354;49.832;10.746;2023-03-11T11:17:23;4.70;99.90
8633;DHT22;4354;49.832;10.746;2023-03-11T11:19:52;4.90;99.90
8633;DHT22;4354;49.832;10.746;2023-03-11T11:22:21;5.10;99.90
8633;DHT22;4354;49.832;10.746;2023-03-11T11:24:50;5.60;99.90
8633;DHT22;4354;49.832;10.746;2023-03-11T11:27:25;5.70;99.90
8633;DHT22;4354;49.832;10.746;2023-03-11T11:32:35;5.70;99.90
8633;DHT22;4354;49.832;10.746;2023-03-11T11:35:11;5.80;99.90
8633;DHT22;4354;49.832;10.746;2023-03-11T11:37:41;5.80;99.90
8633;DHT22;4354;49.832;10.746;2023-03-11T11:42:49;5.00;99.90
8633;DHT22;4354;49.832;10.746;2023-03-11T11:45:41;4.80;99.90
8633;DHT22;4354;49.832;10.746;2023-03-11T11:50:56;4.40;99.90
8633;DHT22;4354;49.832;10.746;2023-03-11T11:53:40;4.30;99.90
8633;DHT22;4354;49.832;10.746;2023-03-11T11:56:08;4.30;99.90
8633;DHT22;4354;49.832;10.746;2023-03-11T11:58:35;4.20;99.90
8633;DHT22;4354;49.832;10.746;2023-03-11T12:01:24;4.30;99.90
8633;DHT22;4354;49.832;10.746;2023-03-11T12:06:41;4.30;99.90
8633;DHT22;4354;49.832;10.746;2023-03-11T12:09:26;4.40;99.90
8633;DHT22;4354;49.832;10.746;2023-03-11T12:14:46;4.70;99.90
8633;DHT22;4354;49.832;10.746;2023-03-11T12:17:15;4.90;99.90
8633;DHT22;4354;49.832;10.746;2023-03-11T12:19:53;5.10;99.90
8633;DHT22;4354;49.832;10.746;2023-03-11T12:25:29;5.00;99.90
8633;DHT22;4354;49.832;10.746;2023-03-11T12:30:57;5.10;99.90
8633;DHT22;4354;49.832;10.746;2023-03-11T12:33:37;5.00;99.90
8633;DHT22;4354;49.832;10.746;2023-03-11T12:36:06;5.00;99.90
8633;DHT22;4354;49.832;10.746;2023-03-11T12:38:38;4.90;99.90
8633;DHT22;4354;49.832;10.746;2023-03-11T12:46:11;4.30;99.90
8633;DHT22;4354;49.832;10.746;2023-03-11T12:54:29;4.30;99.90
8633;DHT22;4354;49.832;10.746;2023-03-11T13:03:28;4.70;99.90
8633;DHT22;4354;49.832;10.746;2023-03-11T13:08:45;5.10;99.90
8633;DHT22;4354;49.832;10.746;2023-03-11T13:16:44;5.60;99.90
8633;DHT22;4354;49.832;10.746;2023-03-11T13:22:01;5.90;99.90
8633;DHT22;4354;49.832;10.746;2023-03-11T13:27:13;5.90;99.90
8633;DHT22;4354;49.832;10.746;2023-03-11T13:29:58;5.80;99.90
8633;DHT22;4354;49.832;10.746;2023-03-11T13:32:52;5.80;99.90
8633;DHT22;4354;49.832;10.746;2023-03-11T13:35:49;5.50;99.90
8633;DHT22;4354;49.832;10.746;2023-03-11T13:41:30;5.00;99.90
8633;DHT22;4354;49.832;10.746;2023-03-11T13:44:26;5.10;99.90
8633;DHT22;4354;49.832;10.746;2023-03-11T13:47:00;4.90;99.90
8633;DHT22;4354;49.832;10.746;2023-03-11T13:50:23;4.80;99.90
8633;DHT22;4354;49.832;10.746;2023-03-11T13:52:33;4.70;99.90
8633;DHT22;4354;49.832;10.746;2023-03-11T13:58:34;4.60;99.90
8633;DHT22;4354;49.832;10.746;2023-03-11T14:01:01;4.60;99.90
8633;DHT22;4354;49.832;10.746;2023-03-11T14:03:39;4.60;99.90
8633;DHT22;4354;49.832;10.746;2023-03-11T14:06:11;4.70;99.90
8633;DHT22;4354;49.832;10.746;2023-03-11T14:08:40;4.70;99.90
8633;DHT22;4354;49.832;10.746;2023-03-11T14:13:45;4.80;99.90
8633;DHT22;4354;49.832;10.746;2023-03-11T14:21:41;5.50;99.90
8633;DHT22;4354;49.832;10.746;2023-03-11T14:24:18;5.80;99.90
8633;DHT22;4354;49.832;10.746;2023-03-11T14:26:46;5.90;99.90
8633;DHT22;4354;49.832;10.746;2023-03-11T14:29:18;5.90;99.90
8633;DHT22;4354;49.832;10.746;2023-03-11T14:31:46;6.00;99.90
8633;DHT22;4354;49.832;10.746;2023-03-11T14:34:17;6.00;99.90
8633;DHT22;4354;49.832;10.746;2023-03-11T14:36:49;5.90;99.90
8633;DHT22;4354;49.832;10.746;2023-03-11T14:42:12;5.70;99.90
8633;DHT22;4354;49.832;10.746;2023-03-11T14:44:55;5.60;99.90
8633;DHT22;4354;49.832;10.746;2023-03-11T14:47:46;5.60;99.90
8633;DHT22;4354;49.832;10.746;2023-03-11T14:50:19;5.50;99.90
8633;DHT22;4354;49.832;10.746;2023-03-11T14:52:51;5.50;99.90
8633;DHT22;4354;49.832;10.746;2023-03-11T14:55:23;5.30;99.90
8633;DHT22;4354;49.832;10.746;2023-03-11T15:00:29;5.30;99.90
8633;DHT22;4354;49.832;10.746;2023-03-11T15:03:03;5.20;99.90
8633;DHT22;4354;49.832;10.746;2023-03-11T15:05:46;5.20;99.90
8633;DHT22;4354;49.832;10.746;2023-03-11T15:08:19;5.10;99.90
8633;DHT22;4354;49.832;10.746;2023-03-11T15:13:40;4.70;99.90
8633;DHT22;4354;49.832;10.746;2023-03-11T15:16:32;4.60;99.90
8633;DHT22;4354;49.832;10.746;2023-03-11T15:21:56;4.20;99.90
8633;DHT22;4354;49.832;10.746;2023-03-11T15:24:28;4.10;99.90
8633;DHT22;4354;49.832;10.746;2023-03-11T15:27:05;4.00;99.90
8633;DHT22;4354;49.832;10.746;2023-03-11T15:29:33;3.90;99.90
8633;DHT22;4354;49.832;10.746;2023-03-11T15:35:12;3.90;99.90
8633;DHT22;4354;49.832;10.746;2023-03-11T15:37:41;3.90;99.90
8633;DHT22;4354;49.832;10.746;2023-03-11T15:40:24;3.90;99.90
8633;DHT22;4354;49.832;10.746;2023-03-11T15:43:19;4.00;99.90
8633;DHT22;4354;49.832;10.746;2023-03-11T15:45:47;4.10;99.90
8633;DHT22;4354;49.832;10.746;2023-03-11T15:48:14;4.20;99.90
8633;DHT22;4354;49.832;10.746;2023-03-11T15:50:52;4.30;99.90
8633;DHT22;4354;49.832;10.746;2023-03-11T15:53:21;4.30;99.90
8633;DHT22;4354;49.832;10.746;2023-03-11T15:55:49;4.40;99.90
8633;DHT22;4354;49.832;10.746;2023-03-11T15:58:17;4.40;99.90
8633;DHT22;4354;49.832;10.746;2023-03-11T16:04:15;4.40;99.90
8633;DHT22;4354;49.832;10.746;2023-03-11T16:06:43;4.40;99.90
8633;DHT22;4354;49.832;10.746;2023-03-11T16:09:10;4.30;99.90
8633;DHT22;4354;49.832;10.746;2023-03-11T16:11:38;4.20;99.90
8633;DHT22;4354;49.832;10.746;2023-03-11T16:14:05;4.10;99.90
8633;DHT22;4354;49.832;10.746;2023-03-11T16:16:32;4.00;99.90
8633;DHT22;4354;49.832;10.746;2023-03-11T16:18:59;4.00;99.90
8633;DHT22;4354;49.832;10.746;2023-03-11T16:21:33;3.90;99.90
8633;DHT22;4354;49.832;10.746;2023-03-11T16:24:01;3.90;99.90
8633;DHT22;4354;49.832;10.746;2023-03-11T16:26:28;3.90;99.90
8633;DHT22;4354;49.832;10.746;2023-03-11T16:28:55;4.00;99.90
8633;DHT22;4354;49.832;10.746;2023-03-11T16:31:31;3.90;99.90
8633;DHT22;4354;49.832;10.746;2023-03-11T16:33:59;3.90;99.90
8633;DHT22;4354;49.832;10.746;2023-03-11T16:36:26;3.80;99.90
8633;DHT22;4354;49.832;10.746;2023-03-11T16:38:53;3.80;99.90
8633;DHT22;4354;49.832;10.746;2023-03-11T16:41:20;3.70;99.90
8633;DHT22;4354;49.832;10.746;2023-03-11T16:43:47;3.60;99.90
8633;DHT22;4354;49.832;10.746;2023-03-11T16:46:13;3.50;99.90
8633;DHT22;4354;49.832;10.746;2023-03-11T16:48:40;3.50;99.90
8633;DHT22;4354;49.832;10.746;2023-03-11T16:51:07;3.40;99.90
8633;DHT22;4354;49.832;10.746;2023-03-11T16:53:34;3.40;99.90
8633;DHT22;4354;49.832;10.746;2023-03-11T16:56:01;3.20;99.90
8633;DHT22;4354;49.832;10.746;2023-03-11T16:58:28;3.20;99.90
8633;DHT22;4354;49.832;10.746;2023-03-11T17:00:54;3.20;99.90
8633;DHT22;4354;49.832;10.746;2023-03-11T17:03:21;3.10;99.90
8633;DHT22;4354;49.832;10.746;2023-03-11T17:05:48;3.10;99.90
8633;DHT22;4354;49.832;10.746;2023-03-11T17:08:15;3.00;99.90
8633;DHT22;4354;49.832;10.746;2023-03-11T17:10:44;2.90;99.90
8633;DHT22;4354;49.832;10.746;2023-03-11T17:13:13;2.90;99.90
8633;DHT22;4354;49.832;10.746;2023-03-11T17:15:44;2.90;99.90
8633;DHT22;4354;49.832;10.746;2023-03-11T17:18:11;2.80;99.90
8633;DHT22;4354;49.832;10.746;2023-03-11T17:20:40;2.80;99.90
8633;DHT22;4354;49.832;10.746;2023-03-11T17:23:09;2.70;99.90
8633;DHT22;4354;49.832;10.746;2023-03-11T17:25:39;2.70;99.90
8633;DHT22;4354;49.832;10.746;2023-03-11T17:28:06;2.70;99.90
8633;DHT22;4354;49.832;10.746;2023-03-11T17:30:33;2.60;99.90
8633;DHT22;4354;49.832;10.746;2023-03-11T17:33:03;2.60;99.90
8633;DHT22;4354;49.832;10.746;2023-03-11T17:35:30;2.60;99.90
8633;DHT22;4354;49.832;10.746;2023-03-11T17:37:57;2.50;99.90
8633;DHT22;4354;49.832;10.746;2023-03-11T17:40:24;2.50;99.90
8633;DHT22;4354;49.832;10.746;2023-03-11T17:42:52;2.50;99.90
8633;DHT22;4354;49.832;10.746;2023-03-11T17:45:19;2.50;99.90
8633;DHT22;4354;49.832;10.746;2023-03-11T17:47:46;2.50;99.90
8633;DHT22;4354;49.832;10.746;2023-03-11T17:50:12;2.50;99.90
8633;DHT22;4354;49.832;10.746;2023-03-11T17:52:39;2.40;99.90
8633;DHT22;4354;49.832;10.746;2023-03-11T17:55:06;2.40;99.90
8633;DHT22;4354;49.832;10.746;2023-03-11T17:57:33;2.40;99.90
8633;DHT22;4354;49.832;10.746;2023-03-11T18:00:11;2.40;99.90
8633;DHT22;4354;49.832;10.746;2023-03-11T18:02:40;2.30;99.90